Aviation Digital Data Service (ADDS)

Output produced by METARs form (0813 UTC 28 March 2017)
found at http://www.aviationweather.gov/adds/metars/
 
KGED 280754Z AUTO 20007KT 10SM OVC095 16/12 A2989 RMK AO2 SLP121 T01560117 $